createdAt,value
2023-11-18T00:01:56.230Z,98995.44
2023-11-18T00:04:58.629Z,98992.59
2023-11-18T00:08:01.175Z,98992.03
2023-11-18T00:11:04.193Z,99000.81
2023-11-18T00:14:07.340Z,98994.41
2023-11-18T00:17:09.710Z,99003.34
2023-11-18T00:20:13.509Z,99004.06
2023-11-18T00:23:17.101Z,99011.84
2023-11-18T00:26:20.355Z,99008.44
2023-11-18T00:29:26.625Z,99032.84
2023-11-18T00:32:29.371Z,99034.75
2023-11-18T00:35:33.134Z,99041.97
2023-11-18T00:38:35.416Z,99027.50
2023-11-18T00:41:37.737Z,99023.94
2023-11-18T00:44:40.084Z,99029.72
2023-11-18T00:47:42.580Z,99039.44
2023-11-18T00:50:45.138Z,99037.22
2023-11-18T00:53:47.436Z,99038.56
2023-11-18T00:56:49.726Z,99042.41
2023-11-18T00:59:52.142Z,99041.06
2023-11-18T01:02:57.992Z,99042.16
2023-11-18T01:06:00.445Z,99037.41
2023-11-18T01:09:02.765Z,99047.22
2023-11-18T01:12:08.910Z,99051.97
2023-11-18T01:15:11.992Z,99050.19
2023-11-18T01:18:14.404Z,99050.34
2023-11-18T01:21:18.617Z,99050.66
2023-11-18T01:24:21.588Z,99048.16
2023-11-18T01:27:24.002Z,99053.81
2023-11-18T01:30:27.910Z,99046.38
2023-11-18T01:33:30.363Z,99045.91
2023-11-18T01:36:32.789Z,99055.28
2023-11-18T01:39:35.750Z,99047.09
2023-11-18T01:42:38.333Z,99046.22
2023-11-18T01:45:43.805Z,99040.75
2023-11-18T01:48:46.173Z,99045.78
2023-11-18T01:51:48.899Z,99041.91
2023-11-18T01:54:51.212Z,99036.84
2023-11-18T01:57:53.528Z,99044.34
2023-11-18T02:00:56.849Z,99039.88
2023-11-18T02:04:00.359Z,99045.25
2023-11-18T02:07:05.514Z,99050.47
2023-11-18T02:10:10.510Z,99045.84
2023-11-18T02:13:41.696Z,99057.47
2023-11-18T02:16:46.359Z,99048.13
2023-11-18T02:19:49.294Z,99057.91
2023-11-18T02:22:52.664Z,99053.16
2023-11-18T02:25:56.772Z,99066.25
2023-11-18T02:28:59.345Z,99069.34
2023-11-18T02:32:35.850Z,99064.88
2023-11-18T02:35:49.569Z,99065.31
2023-11-18T02:38:52.413Z,99065.50
2023-11-18T02:42:00.046Z,99062.66
2023-11-18T02:45:03.335Z,99057.59
2023-11-18T02:48:07.697Z,99059.81
2023-11-18T02:51:13.252Z,99059.69
2023-11-18T02:54:17.532Z,99060.44
2023-11-18T02:57:19.843Z,99060.59
2023-11-18T03:00:24.711Z,99057.31
2023-11-18T03:03:28.667Z,99058.50
2023-11-18T03:06:31.538Z,99057.03
2023-11-18T03:09:36.133Z,99051.22
2023-11-18T03:12:41.920Z,99055.53
2023-11-18T03:15:44.236Z,99064.19
2023-11-18T03:18:46.561Z,99061.91
2023-11-18T03:21:54.713Z,99056.16
2023-11-18T03:24:57.144Z,99071.31
2023-11-18T03:28:00.366Z,99073.34
2023-11-18T03:31:03.149Z,99076.03
2023-11-18T03:34:05.528Z,99088.69
2023-11-18T03:37:07.911Z,99079.16
2023-11-18T03:40:12.825Z,99064.31
2023-11-18T03:43:15.164Z,99076.63
2023-11-18T03:46:17.598Z,99078.44
2023-11-18T03:49:21.335Z,99082.00
2023-11-18T03:52:24.130Z,99075.91
2023-11-18T03:55:29.213Z,99092.25
2023-11-18T03:58:33.995Z,99096.13
2023-11-18T04:01:36.458Z,99082.00
2023-11-18T04:04:40.303Z,99076.50
2023-11-18T04:07:43.290Z,99080.66
2023-11-18T04:10:45.690Z,99084.09
2023-11-18T04:13:48.042Z,99091.34
2023-11-18T04:16:50.642Z,99094.50
2023-11-18T04:19:53.664Z,99090.47
2023-11-18T04:22:56.072Z,99095.09
2023-11-18T04:25:58.443Z,99089.31
2023-11-18T04:29:00.825Z,99098.81
2023-11-18T04:32:03.604Z,99096.28
2023-11-18T04:35:10.975Z,99097.47
2023-11-18T04:38:13.510Z,99092.56
2023-11-18T04:41:16.554Z,99098.19
2023-11-18T04:44:19.037Z,99105.31
2023-11-18T04:47:21.549Z,99099.38
2023-11-18T04:50:23.956Z,99119.78
2023-11-18T04:53:26.730Z,99112.63
2023-11-18T04:56:28.994Z,99116.06
2023-11-18T04:59:32.099Z,99132.84
2023-11-18T05:02:35.576Z,99127.34
2023-11-18T05:05:39.041Z,99127.03
2023-11-18T05:08:41.401Z,99131.06
2023-11-18T05:11:43.974Z,99136.72
2023-11-18T05:14:46.252Z,99133.13
2023-11-18T05:17:48.551Z,99139.25
2023-11-18T05:20:51.293Z,99146.69
2023-11-18T05:23:53.672Z,99146.38
2023-11-18T05:26:56.782Z,99143.53
2023-11-18T05:30:00.540Z,99153.22
2023-11-18T05:33:06.945Z,99141.47
2023-11-18T05:36:09.672Z,99146.38
2023-11-18T05:39:12.131Z,99140.88
2023-11-18T05:42:14.950Z,99132.69
2023-11-18T05:45:29.739Z,99149.78
2023-11-18T05:48:33.206Z,99149.34
2023-11-18T05:51:36.235Z,99149.50
2023-11-18T05:54:38.575Z,99159.91
2023-11-18T05:57:40.740Z,99160.50
2023-11-18T06:00:42.934Z,99177.16
2023-11-18T06:03:46.953Z,99181.47
2023-11-18T06:06:49.396Z,99183.56
2023-11-18T06:09:52.074Z,99179.97
2023-11-18T06:12:59.208Z,99187.41
2023-11-18T06:16:01.479Z,99194.97
2023-11-18T06:19:06.189Z,99193.28
2023-11-18T06:22:08.394Z,99197.41
2023-11-18T06:25:10.742Z,99187.44
2023-11-18T06:28:13.056Z,99197.03
2023-11-18T06:31:15.501Z,99199.78
2023-11-18T06:34:19.276Z,99203.72
2023-11-18T06:37:22.174Z,99211.78
2023-11-18T06:40:27.817Z,99203.13
2023-11-18T06:43:42.680Z,99212.16
2023-11-18T06:46:45.601Z,99219.53
2023-11-18T06:49:48.886Z,99211.75
2023-11-18T06:52:52.252Z,99211.09
2023-11-18T06:55:55.379Z,99216.78
2023-11-18T06:58:58.198Z,99223.56
2023-11-18T07:02:00.539Z,99226.00
2023-11-18T07:05:02.935Z,99231.97
2023-11-18T07:08:05.584Z,99229.41
2023-11-18T07:11:07.927Z,99233.81
2023-11-18T07:14:13.822Z,99223.03
2023-11-18T07:17:16.173Z,99241.78
2023-11-18T07:20:18.694Z,99228.34
2023-11-18T07:23:21.059Z,99231.38
2023-11-18T07:26:25.115Z,99230.66
2023-11-18T07:29:28.116Z,99221.75
2023-11-18T07:32:31.142Z,99219.66
2023-11-18T07:35:33.690Z,99219.69
2023-11-18T07:38:36.019Z,99215.38
2023-11-18T07:41:38.541Z,99221.44
2023-11-18T07:44:41.135Z,99233.28
2023-11-18T07:47:43.492Z,99225.78
2023-11-18T07:50:45.975Z,99232.72
2023-11-18T07:53:51.752Z,99229.50
2023-11-18T07:56:55.119Z,99232.72
2023-11-18T07:59:57.498Z,99226.69
2023-11-18T08:03:01.469Z,99227.56
2023-11-18T08:06:04.323Z,99224.31
2023-11-18T08:09:11.880Z,99228.16
2023-11-18T08:12:14.139Z,99242.63
2023-11-18T08:15:17.946Z,99250.44
2023-11-18T08:18:22.693Z,99247.81
2023-11-18T08:21:25.073Z,99242.97
2023-11-18T08:24:27.814Z,99235.63
2023-11-18T08:27:30.134Z,99247.47
2023-11-18T08:30:35.108Z,99249.47
2023-11-18T08:33:37.624Z,99247.66
2023-11-18T08:36:39.923Z,99257.59
2023-11-18T08:39:42.207Z,99262.50
2023-11-18T08:42:51.858Z,99274.75
2023-11-18T08:45:55.920Z,99257.94
2023-11-18T08:48:58.231Z,99275.69
2023-11-18T08:52:00.532Z,99266.97
2023-11-18T08:55:18.782Z,99268.78
2023-11-18T08:58:23.036Z,99269.00
2023-11-18T09:01:29.512Z,99258.03
2023-11-18T09:04:34.795Z,99278.47
2023-11-18T09:07:38.036Z,99263.47
2023-11-18T09:10:42.254Z,99271.31
2023-11-18T09:13:50.813Z,99272.25
2023-11-18T09:16:56.264Z,99259.50
2023-11-18T09:19:58.583Z,99252.97
2023-11-18T09:23:01.130Z,99254.63
2023-11-18T09:26:08.649Z,99254.31
2023-11-18T09:29:12.440Z,99246.25
2023-11-18T09:32:15.967Z,99249.25
2023-11-18T09:35:20.797Z,99247.47
2023-11-18T09:38:23.163Z,99235.66
2023-11-18T09:41:28.518Z,99241.00
2023-11-18T09:44:33.433Z,99240.81
2023-11-18T09:47:48.417Z,99252.16
2023-11-18T09:50:52.411Z,99249.53
2023-11-18T09:53:55.602Z,99249.72
2023-11-18T09:57:10.602Z,99248.50
2023-11-18T10:00:33.669Z,99243.69
2023-11-18T10:03:39.173Z,99240.41
2023-11-18T10:06:45.934Z,99243.34
2023-11-18T10:09:50.076Z,99246.41
2023-11-18T10:12:59.347Z,99251.59
2023-11-18T10:16:06.118Z,99250.47
2023-11-18T10:19:10.021Z,99262.25
2023-11-18T10:22:24.824Z,99263.97
2023-11-18T10:25:27.260Z,99260.09
2023-11-18T10:28:34.640Z,99253.31
2023-11-18T10:31:38.559Z,99255.91
2023-11-18T10:34:41.086Z,99255.09
2023-11-18T10:37:45.016Z,99255.94
2023-11-18T10:40:47.894Z,99239.56
2023-11-18T10:43:50.607Z,99247.38
2023-11-18T10:46:54.641Z,99254.72
2023-11-18T10:49:57.479Z,99274.63
2023-11-18T10:53:04.420Z,99276.13
2023-11-18T10:56:07.974Z,99267.22
2023-11-18T10:59:15.181Z,99289.59
2023-11-18T11:02:25.143Z,99292.34
2023-11-18T11:05:34.212Z,99277.38
2023-11-18T11:11:47.850Z,99279.25
2023-11-18T11:14:56.801Z,99283.22
2023-11-18T11:18:11.103Z,99277.59
2023-11-18T11:21:23.133Z,99284.19
2023-11-18T11:24:53.991Z,99297.91
2023-11-18T11:28:21.166Z,99290.31
2023-11-18T11:31:37.674Z,99297.59
2023-11-18T11:34:52.715Z,99305.13
2023-11-18T11:38:04.162Z,99310.63
2023-11-18T11:41:09.560Z,99309.31
2023-11-18T11:44:14.331Z,99315.03
2023-11-18T11:47:17.618Z,99313.00
2023-11-18T11:50:40.084Z,99324.59
2023-11-18T11:53:53.645Z,99329.50
2023-11-18T11:57:00.994Z,99341.28
2023-11-18T12:00:17.082Z,99337.03
2023-11-18T12:03:24.071Z,99347.44
2023-11-18T12:06:29.076Z,99353.56
2023-11-18T12:09:38.812Z,99364.03
2023-11-18T12:12:43.392Z,99356.41
2023-11-18T12:16:05.403Z,99355.97
2023-11-18T12:19:37.910Z,99370.53
2023-11-18T12:23:15.918Z,99367.53
2023-11-18T12:26:44.928Z,99380.53
2023-11-18T12:29:51.717Z,99376.25
2023-11-18T12:33:10.554Z,99380.84
2023-11-18T12:36:25.357Z,99381.69
2023-11-18T12:39:51.607Z,99370.91
2023-11-18T12:43:06.436Z,99391.75
2023-11-18T12:46:43.861Z,99392.53
2023-11-18T12:49:51.425Z,99396.75
2023-11-18T12:52:54.368Z,99388.56
2023-11-18T12:56:00.043Z,99399.94
2023-11-18T12:59:07.191Z,99400.50
2023-11-18T13:02:22.573Z,99408.78
2023-11-18T13:05:30.983Z,99421.19
2023-11-18T13:08:33.760Z,99412.72
2023-11-18T13:11:36.297Z,99419.31
2023-11-18T13:14:40.596Z,99424.44
2023-11-18T13:18:07.982Z,99419.06
2023-11-18T13:21:15.297Z,99412.44
2023-11-18T13:24:18.158Z,99416.78
2023-11-18T13:27:20.921Z,99415.53
2023-11-18T13:30:23.771Z,99424.19
2023-11-18T13:33:26.187Z,99422.31
2023-11-18T13:36:29.213Z,99432.81
2023-11-18T13:39:32.588Z,99440.84
2023-11-18T13:42:37.452Z,99440.84
2023-11-18T13:45:40.770Z,99449.28
2023-11-18T13:48:47.919Z,99441.63
2023-11-18T13:51:51.793Z,99442.53
2023-11-18T13:54:58.376Z,99445.22
2023-11-18T13:58:00.841Z,99443.16
2023-11-18T14:01:03.221Z,99457.44
2023-11-18T14:04:06.732Z,99448.00
2023-11-18T14:07:10.771Z,99462.78
2023-11-18T14:10:17.784Z,99459.06
2023-11-18T14:13:32.132Z,99464.31
2023-11-18T14:16:35.641Z,99474.00
2023-11-18T14:19:38.981Z,99473.72
2023-11-18T14:22:43.573Z,99474.72
2023-11-18T14:25:49.619Z,99462.75
2023-11-18T14:28:52.574Z,99470.72
2023-11-18T14:31:58.349Z,99481.19
2023-11-18T14:35:00.876Z,99483.69
2023-11-18T14:38:03.615Z,99483.56
2023-11-18T14:41:06.229Z,99489.78
2023-11-18T14:44:10.842Z,99504.44
2023-11-18T14:47:13.444Z,99501.97
2023-11-18T14:50:20.594Z,99516.19
2023-11-18T14:53:23.719Z,99503.06
2023-11-18T14:56:26.198Z,99513.59
2023-11-18T14:59:28.777Z,99517.94
2023-11-18T15:02:32.117Z,99528.75
2023-11-18T15:05:35.566Z,99533.22
2023-11-18T15:08:42.190Z,99538.81
2023-11-18T15:11:46.776Z,99545.69
2023-11-18T15:14:50.374Z,99542.56
2023-11-18T15:17:53.243Z,99548.41
2023-11-18T15:20:57.809Z,99556.34
2023-11-18T15:24:04.807Z,99547.13
2023-11-18T15:27:07.077Z,99543.56
2023-11-18T15:30:11.550Z,99545.47
2023-11-18T15:33:16.568Z,99549.66
2023-11-18T15:36:18.981Z,99555.69
2023-11-18T15:39:21.318Z,99556.28
2023-11-18T15:42:23.855Z,99569.34
2023-11-18T15:45:27.665Z,99576.22
2023-11-18T15:48:32.461Z,99576.44
2023-11-18T15:51:35.201Z,99579.00
2023-11-18T15:54:38.365Z,99578.88
2023-11-18T15:57:42.733Z,99592.59
2023-11-18T16:00:45.102Z,99588.44
2023-11-18T16:03:47.740Z,99580.22
2023-11-18T16:06:50.277Z,99582.78
2023-11-18T16:09:52.767Z,99579.31
2023-11-18T16:12:56.971Z,99593.25
2023-11-18T16:15:59.285Z,99592.97
2023-11-18T16:19:01.656Z,99587.16
2023-11-18T16:22:04.807Z,99597.47
2023-11-18T16:25:07.437Z,99589.84
2023-11-18T16:28:10.845Z,99591.94
2023-11-18T16:31:13.141Z,99587.78
2023-11-18T16:34:15.785Z,99598.50
2023-11-18T16:37:18.255Z,99600.28
2023-11-18T16:40:22.257Z,99590.75
2023-11-18T16:43:24.615Z,99601.97
2023-11-18T16:46:26.924Z,99599.88
2023-11-18T16:49:30.050Z,99596.91
2023-11-18T16:52:32.573Z,99601.56
2023-11-18T16:55:36.172Z,99604.53
2023-11-18T16:58:38.970Z,99606.19
2023-11-18T17:01:41.332Z,99612.28
2023-11-18T17:04:43.829Z,99616.63
2023-11-18T17:07:46.737Z,99617.22
2023-11-18T17:10:54.726Z,99604.41
2023-11-18T17:13:57.187Z,99619.00
2023-11-18T17:16:59.714Z,99617.09
2023-11-18T17:20:02.066Z,99626.16
2023-11-18T17:23:04.670Z,99641.53
2023-11-18T17:26:09.503Z,99643.19
2023-11-18T17:29:14.880Z,99647.19
2023-11-18T17:32:17.330Z,99654.34
2023-11-18T17:35:21.471Z,99661.25
2023-11-18T17:38:23.997Z,99670.91
2023-11-18T17:41:26.589Z,99673.47
2023-11-18T17:44:31.097Z,99684.63
2023-11-18T17:47:38.663Z,99686.59
2023-11-18T17:50:41.288Z,99689.84
2023-11-18T17:53:45.782Z,99687.91
2023-11-18T17:56:48.239Z,99686.53
2023-11-18T17:59:54.005Z,99683.69
2023-11-18T18:02:57.334Z,99685.34
2023-11-18T18:06:00.632Z,99683.88
2023-11-18T18:09:03.385Z,99676.09
2023-11-18T18:12:09.250Z,99685.19
2023-11-18T18:15:11.964Z,99687.13
2023-11-18T18:18:14.395Z,99684.84
2023-11-18T18:21:17.190Z,99686.34
2023-11-18T18:24:19.478Z,99682.31
2023-11-18T18:27:23.452Z,99684.84
2023-11-18T18:30:25.833Z,99686.91
2023-11-18T18:33:28.291Z,99698.56
2023-11-18T18:36:30.569Z,99699.41
2023-11-18T18:39:32.912Z,99700.31
2023-11-18T18:42:35.179Z,99694.78
2023-11-18T18:45:37.583Z,99684.50
2023-11-18T18:48:40.080Z,99685.66
2023-11-18T18:51:42.399Z,99694.00
2023-11-18T18:54:46.339Z,99693.25
2023-11-18T18:57:48.815Z,99688.47
2023-11-18T19:00:53.258Z,99695.63
2023-11-18T19:03:55.707Z,99693.94
2023-11-18T19:06:58.025Z,99681.88
2023-11-18T19:10:00.206Z,99676.81
2023-11-18T19:13:04.714Z,99672.94
2023-11-18T19:16:08.662Z,99672.34
2023-11-18T19:19:11.260Z,99680.06
2023-11-18T19:22:13.626Z,99680.81
2023-11-18T19:25:16.891Z,99689.09
2023-11-18T19:28:22.404Z,99677.81
2023-11-18T19:31:24.986Z,99684.31
2023-11-18T19:34:27.325Z,99698.19
2023-11-18T19:37:29.623Z,99708.94
2023-11-18T19:40:32.937Z,99693.75
2023-11-18T19:43:35.389Z,99688.53
2023-11-18T19:46:37.665Z,99688.28
2023-11-18T19:49:42.086Z,99688.75
2023-11-18T19:52:44.294Z,99705.03
2023-11-18T19:55:47.020Z,99701.31
2023-11-18T19:58:50.374Z,99707.91
2023-11-18T20:01:55.870Z,99713.25
2023-11-18T20:04:59.490Z,99708.88
2023-11-18T20:08:01.808Z,99711.72
2023-11-18T20:11:08.194Z,99717.09
2023-11-18T20:14:10.503Z,99724.06
2023-11-18T20:17:12.806Z,99730.34
2023-11-18T20:20:15.817Z,99718.38
2023-11-18T20:23:18.323Z,99713.03
2023-11-18T20:26:20.655Z,99723.53
2023-11-18T20:29:23.229Z,99734.88
2023-11-18T20:32:25.569Z,99719.69
2023-11-18T20:35:28.104Z,99722.38
2023-11-18T20:38:33.865Z,99726.66
2023-11-18T20:41:36.311Z,99724.88
2023-11-18T20:44:39.229Z,99711.19
2023-11-18T20:47:41.910Z,99713.03
2023-11-18T20:50:51.676Z,99724.75
2023-11-18T20:53:54.461Z,99746.00
2023-11-18T20:56:56.739Z,99744.38
2023-11-18T20:59:59.000Z,99734.19
2023-11-18T21:03:01.509Z,99732.53
2023-11-18T21:06:04.317Z,99741.97
2023-11-18T21:09:09.645Z,99740.47
2023-11-18T21:12:18.209Z,99736.28
2023-11-18T21:15:29.662Z,99730.75
2023-11-18T21:18:32.178Z,99735.06
2023-11-18T21:21:34.814Z,99729.72
2023-11-18T21:24:37.551Z,99730.91
2023-11-18T21:27:39.993Z,99736.81
2023-11-18T21:30:42.331Z,99737.16
2023-11-18T21:33:45.054Z,99744.97
2023-11-18T21:36:47.723Z,99755.09
2023-11-18T21:39:50.872Z,99746.31
2023-11-18T21:42:54.638Z,99742.63
2023-11-18T21:45:58.116Z,99743.47
2023-11-18T21:49:00.612Z,99739.78
2023-11-18T21:52:02.953Z,99745.97
2023-11-18T21:55:06.681Z,99745.25
2023-11-18T21:58:08.964Z,99757.63
2023-11-18T22:01:11.448Z,99752.75
2023-11-18T22:04:13.901Z,99762.38
2023-11-18T22:07:16.334Z,99760.28
2023-11-18T22:10:20.140Z,99748.13
2023-11-18T22:13:22.630Z,99742.38
2023-11-18T22:16:28.958Z,99742.63
2023-11-18T22:19:31.664Z,99739.72
2023-11-18T22:22:34.505Z,99728.22
2023-11-18T22:25:37.218Z,99730.66
2023-11-18T22:28:40.430Z,99737.50
2023-11-18T22:31:46.112Z,99725.78
2023-11-18T22:34:48.763Z,99728.59
2023-11-18T22:37:51.319Z,99725.03
2023-11-18T22:40:53.594Z,99725.69
2023-11-18T22:43:55.881Z,99729.25
2023-11-18T22:47:01.492Z,99731.28
2023-11-18T22:50:05.937Z,99726.31
2023-11-18T22:53:10.398Z,99732.59
2023-11-18T22:56:15.500Z,99734.63
2023-11-18T22:59:21.217Z,99747.91
2023-11-18T23:02:24.229Z,99753.06
2023-11-18T23:05:26.955Z,99753.06
2023-11-18T23:08:29.305Z,99756.81
2023-11-18T23:11:32.272Z,99747.13
2023-11-18T23:14:34.639Z,99734.38
2023-11-18T23:17:37.114Z,99734.63
2023-11-18T23:20:39.550Z,99725.91
2023-11-18T23:23:43.496Z,99730.66
2023-11-18T23:26:45.796Z,99725.97
2023-11-18T23:29:48.087Z,99734.59
2023-11-18T23:32:50.635Z,99720.50
2023-11-18T23:35:53.680Z,99716.28
2023-11-18T23:39:02.524Z,99714.81
2023-11-18T23:42:06.164Z,99722.41
2023-11-18T23:45:09.336Z,99721.09
2023-11-18T23:48:11.826Z,99714.75
2023-11-18T23:51:14.124Z,99718.16
2023-11-18T23:54:16.379Z,99717.97
2023-11-18T23:57:18.700Z,99708.88
